Time;durP1;ratioP1;P1;durP2;ratioP2;P2;SDS_P1;SDS_P2;PMS_P1;PMS_P2;Temp;Humidity;BMP_temperature;BMP_pressure;BME280_temperature;BME280_humidity;BME280_pressure;Samples;Min_cycle;Max_cycle;Signal;HPM_P1;HPM_P2
2022/06/07 00:02:28;;;;;;;15.45;9.55;;;12.70;1.00;;;13.93;94.81;99403.13;5058941;27;129538;-69
2022/06/07 00:04:58;;;;;;;15.05;9.40;;;12.70;1.00;;;13.88;94.55;99404.13;5043677;27;119643;-70
2022/06/07 00:07:28;;;;;;;16.35;9.45;;;12.60;1.00;;;13.87;94.82;99399.00;5043546;27;118905;-69
2022/06/07 00:09:57;;;;;;;15.02;9.18;;;12.70;1.00;;;13.79;95.43;99392.50;5058189;27;131106;-71
2022/06/07 00:12:26;;;;;;;14.52;9.32;;;12.60;1.00;;;13.71;96.30;99396.13;5058145;27;129697;-71
2022/06/07 00:14:55;;;;;;;13.63;8.57;;;12.70;1.00;;;13.64;96.80;99397.44;5056958;27;121563;-70
2022/06/07 00:17:23;;;;;;;13.95;8.90;;;12.70;1.00;;;13.64;97.04;99386.53;5040054;27;121844;-71
2022/06/07 00:19:52;;;;;;;15.82;9.55;;;12.60;1.00;;;13.63;97.68;99390.41;5042726;27;128756;-72
2022/06/07 00:22:20;;;;;;;14.60;9.55;;;12.60;1.00;;;13.64;98.31;99388.47;5039595;27;129959;-72
2022/06/07 00:24:50;;;;;;;14.27;9.30;;;12.60;1.00;;;13.53;98.37;99395.47;5058638;27;120314;-71
2022/06/07 00:27:19;;;;;;;15.30;9.68;;;12.50;1.00;;;13.39;99.40;99382.13;5043686;27;118183;-71
2022/06/07 00:29:48;;;;;;;17.27;8.68;;;12.40;1.00;;;13.37;99.58;99387.09;5045520;27;129467;-71
2022/06/07 00:32:21;;;;;;;14.73;9.02;;;12.40;1.00;;;13.39;98.96;99385.63;5043570;27;129463;-69
2022/06/07 00:34:50;;;;;;;15.38;9.77;;;12.40;1.00;;;13.33;99.30;99386.97;5029773;27;118938;-72
2022/06/07 00:37:19;;;;;;;13.38;8.30;;;12.30;1.00;;;13.27;99.71;99383.59;5043201;27;120323;-71
2022/06/07 00:39:49;;;;;;;14.20;9.23;;;12.30;1.00;;;13.22;99.98;99381.09;5041696;27;130738;-71
2022/06/07 00:42:18;;;;;;;13.82;8.30;;;12.30;1.00;;;13.24;99.78;99387.00;5061159;27;131178;-71
2022/06/07 00:44:47;;;;;;;16.02;8.52;;;12.30;1.00;;;13.25;99.60;99385.09;5043325;27;120018;-72
2022/06/07 00:47:20;;;;;;;13.85;8.70;;;12.30;1.00;;;13.31;99.06;99379.09;5061561;27;119568;-71
2022/06/07 00:49:55;;;;;;;15.25;8.98;;;12.20;1.00;;;13.24;99.37;99376.09;5029226;27;128863;-71
2022/06/07 00:52:28;;;;;;;17.20;9.93;;;12.20;1.00;;;13.22;99.32;99381.09;5061162;27;129731;-72
2022/06/07 00:54:59;;;;;;;14.05;9.35;;;12.20;1.00;;;13.23;99.06;99371.78;5042956;27;119510;-71
2022/06/07 00:57:40;;;;;;;17.08;8.93;;;12.20;3.20;;;13.20;99.17;99371.63;5046790;27;119021;-71
2022/06/07 01:00:23;;;;;;;12.00;8.88;;;12.20;13.20;;;13.17;98.92;99375.84;5042554;27;130477;-71
2022/06/07 01:02:55;;;;;;;15.82;8.55;;;12.10;2.10;;;13.17;98.58;99375.84;5035808;27;128308;-71
2022/06/07 01:05:24;;;;;;;14.57;8.30;;;12.10;1.00;;;13.13;99.31;99374.91;5058558;27;122194;-70
2022/06/07 01:10:47;;;;;;;13.82;8.77;;;12.20;6.90;;;13.11;99.41;99366.25;5012236;27;128450;-70
2022/06/07 01:13:27;;;;;;;13.00;9.02;;;12.10;1.00;;;13.06;99.58;99377.38;5059324;27;129599;-71
2022/06/07 01:16:04;;;;;;;15.80;9.18;;;12.10;1.00;;;13.08;100.00;99369.66;5060026;27;119470;-72
2022/06/07 01:18:37;;;;;;;16.88;9.15;;;12.10;1.00;;;13.01;100.00;99372.09;5046050;27;118214;-72
2022/06/07 01:21:22;;;;;;;13.07;8.65;;;12.10;10.90;;;12.90;100.00;99368.94;5062738;27;130803;-69
2022/06/07 01:23:53;;;;;;;13.15;8.95;;;12.00;27.10;;;12.72;100.00;99374.50;5063080;27;129376;-70
2022/06/07 01:26:26;;;;;;;13.05;8.45;;;11.90;47.30;;;12.61;100.00;99377.94;5052678;27;119590;-70
2022/06/07 01:28:56;;;;;;;13.98;8.43;;;11.80;89.30;;;12.52;100.00;99376.03;5062750;27;119810;-72
2022/06/07 01:31:25;;;;;;;15.57;9.18;;;11.80;99.90;;;12.49;100.00;99376.69;5059291;27;129799;-71
2022/06/07 01:33:54;;;;;;;12.32;9.85;;;11.80;99.90;;;12.50;100.00;99372.06;5059202;27;130979;-70
2022/06/07 01:36:24;;;;;;;12.05;9.05;;;11.80;99.90;;;12.52;100.00;99367.88;5045105;27;118959;-70
2022/06/07 01:44:22;;;;;;;14.47;9.60;;;11.80;99.90;;;12.50;100.00;99361.97;5064606;27;128954;-72
2022/06/07 01:46:52;;;;;;;14.43;10.10;;;11.80;99.90;;;12.54;100.00;99353.94;5062992;27;119781;-70
2022/06/07 01:49:23;;;;;;;17.63;9.32;;;11.80;99.90;;;12.63;100.00;99365.59;5067347;27;119200;-70
2022/06/07 01:51:55;;;;;;;14.70;9.48;;;11.80;99.90;;;12.75;100.00;99367.63;5050771;27;129405;-70
2022/06/07 01:54:24;;;;;;;14.77;9.13;;;11.80;99.90;;;12.80;100.00;99370.16;5048550;27;128951;-70
2022/06/07 01:56:55;;;;;;;15.63;9.32;;;11.80;99.90;;;12.85;100.00;99361.78;5063054;27;121985;-72
2022/06/07 01:59:24;;;;;;;21.73;9.95;;;11.90;99.90;;;12.85;100.00;99356.31;5061817;27;122165;-70
2022/06/07 02:01:54;;;;;;;16.48;9.00;;;11.90;99.90;;;12.85;100.00;99361.78;5062522;27;130296;-70
2022/06/07 02:04:23;;;;;;;13.10;8.60;;;12.00;99.90;;;12.94;100.00;99364.47;5045462;27;129573;-71
2022/06/07 02:06:54;;;;;;;14.80;9.40;;;12.00;99.90;;;13.03;100.00;99364.41;5029060;27;118687;-70
2022/06/07 02:09:32;;;;;;;18.65;10.15;;;12.10;99.90;;;13.17;100.00;99362.22;5028285;27;118913;-70
2022/06/07 02:12:01;;;;;;;15.50;9.93;;;12.10;99.90;;;13.26;99.83;99365.66;5044681;27;130811;-70
2022/06/07 02:14:31;;;;;;;14.80;9.35;;;12.20;99.90;;;13.30;99.01;99360.34;5041939;27;129366;-71
2022/06/07 02:17:00;;;;;;;14.93;10.25;;;12.20;88.70;;;13.31;98.44;99351.84;5045106;27;119710;-71
2022/06/07 02:19:37;;;;;;;17.48;10.38;;;12.30;42.00;;;13.33;97.57;99353.44;5041799;27;120188;-69
2022/06/07 02:22:08;;;;;;;15.52;10.68;;;12.30;1.00;;;13.35;97.61;99356.66;5043332;27;129701;-71
2022/06/07 02:24:36;;;;;;;16.55;9.43;;;12.30;1.00;;;13.40;97.78;99356.44;5027264;27;128780;-72
2022/06/07 02:27:09;;;;;;;15.52;9.65;;;12.40;1.00;;;13.53;97.42;99358.09;5041385;27;119883;-71
2022/06/07 02:29:41;;;;;;;15.40;9.90;;;12.50;1.00;;;13.68;96.79;99351.25;5041650;27;120598;-70
2022/06/07 02:32:16;;;;;;;13.70;9.32;;;12.60;1.00;;;13.86;95.78;99359.25;5027653;27;129108;-71
2022/06/07 02:34:47;;;;;;;14.68;10.05;;;12.70;1.00;;;13.98;94.58;99357.34;5059485;27;129980;-71
2022/06/07 02:37:18;;;;;;;14.70;9.07;;;12.70;1.00;;;14.03;93.94;99354.38;5040469;27;120050;-71
2022/06/07 02:39:47;;;;;;;16.08;9.10;;;12.80;1.00;;;14.16;93.82;99346.22;5060407;27;120410;-70
2022/06/07 02:42:17;;;;;;;14.68;9.20;;;12.90;1.00;;;14.29;93.37;99344.28;5040926;27;129834;-70
2022/06/07 02:44:45;;;;;;;12.45;8.32;;;12.90;1.00;;;14.49;92.92;99342.59;5062529;27;131812;-71
2022/06/07 02:47:14;;;;;;;16.20;9.93;;;13.00;1.00;;;14.62;90.98;99340.72;5058402;27;121907;-71
2022/06/07 02:49:48;;;;;;;14.68;9.10;;;13.10;1.00;;;14.72;90.49;99334.78;5027416;27;120680;-70
2022/06/07 02:52:18;;;;;;;14.65;8.88;;;13.20;1.00;;;14.88;90.78;99334.84;5040832;27;130259;-70
2022/06/07 02:54:53;;;;;;;13.82;9.25;;;13.40;1.00;;;15.03;89.69;99345.06;5044104;27;128650;-70
2022/06/07 02:57:22;;;;;;;15.57;9.13;;;13.40;1.00;;;15.07;88.95;99335.06;5059392;27;119384;-71
2022/06/07 02:59:51;;;;;;;12.35;8.32;;;13.40;1.00;;;15.13;88.51;99323.88;5040828;27;120105;-71
2022/06/07 03:02:20;;;;;;;13.10;8.45;;;13.50;1.00;;;15.25;88.33;99332.03;5038310;27;130051;-71
2022/06/07 03:04:49;;;;;;;14.18;7.72;;;13.60;1.00;;;15.34;87.68;99326.44;5027803;27;129001;-70
2022/06/07 03:07:19;;;;;;;10.85;7.47;;;13.70;1.00;;;15.60;86.95;99326.00;5044298;27;119310;-71
2022/06/07 03:09:48;;;;;;;11.95;7.88;;;13.90;1.00;;;15.61;86.81;99324.81;5027275;27;117967;-70
2022/06/07 03:12:17;;;;;;;14.48;7.75;;;14.00;1.00;;;15.78;87.02;99329.22;5042520;27;130053;-71
2022/06/07 03:14:47;;;;;;;14.73;9.20;;;14.10;1.00;;;16.03;85.71;99335.34;5040939;27;129872;-71
2022/06/07 03:17:18;;;;;;;12.43;8.43;;;14.30;1.00;;;16.32;85.04;99327.84;5044223;27;119146;-72
2022/06/07 03:19:47;;;;;;;11.55;8.23;;;14.50;1.00;;;16.53;82.58;99325.63;5041113;27;119888;-71
2022/06/07 03:22:18;;;;;;;14.98;8.38;;;14.60;1.00;;;16.71;81.49;99326.03;5044141;27;129821;-70
2022/06/07 03:24:47;;;;;;;15.43;9.90;;;14.70;1.00;;;16.76;80.67;99316.72;5043844;27;129413;-70
2022/06/07 03:27:17;;;;;;;15.38;9.05;;;14.80;1.00;;;16.74;80.12;99324.53;5040804;27;119758;-73
2022/06/07 03:29:47;;;;;;;14.68;9.35;;;14.90;1.00;;;16.82;80.18;99320.78;5041111;27;120333;-71
2022/06/07 03:32:22;;;;;;;18.65;11.48;;;15.00;1.00;;;16.88;80.37;99313.91;5043729;27;129848;-69
2022/06/07 03:34:51;;;;;;;16.45;10.20;;;15.10;1.00;;;16.97;79.53;99315.63;5026707;27;128945;-69
2022/06/07 03:37:21;;;;;;;15.68;10.23;;;15.20;1.00;;;17.00;79.59;99323.13;5046043;27;122245;-72
2022/06/07 03:39:50;;;;;;;17.10;8.90;;;15.30;1.00;;;17.02;79.75;99323.59;5060605;27;121513;-71
2022/06/07 03:42:20;;;;;;;14.55;9.13;;;15.30;1.00;;;17.02;79.76;99316.16;5057024;27;130295;-70
2022/06/07 03:44:50;;;;;;;12.55;8.57;;;15.30;1.00;;;16.98;79.61;99311.75;5057437;27;129663;-71
2022/06/07 03:47:22;;;;;;;16.33;10.27;;;15.30;1.00;;;17.02;80.22;99329.06;5060576;27;119473;-71
2022/06/07 03:49:52;;;;;;;13.82;8.77;;;15.30;1.00;;;17.12;80.23;99317.53;5041294;27;118681;-72
2022/06/07 03:52:24;;;;;;;14.48;8.52;;;15.40;1.00;;;17.22;79.40;99322.44;5058245;27;129486;-72
2022/06/07 03:54:52;;;;;;;11.40;8.10;;;15.50;1.00;;;17.35;79.23;99311.34;5058621;27;130437;-71
2022/06/07 03:57:24;;;;;;;13.80;9.95;;;15.60;1.00;;;17.51;77.81;99314.78;5041572;27;118672;-73
2022/06/07 03:59:57;;;;;;;13.05;9.73;;;15.80;1.00;;;17.79;77.41;99305.50;5055364;27;120291;-71
2022/06/07 04:02:26;;;;;;;17.90;9.55;;;16.00;1.00;;;18.05;76.83;99306.75;5053222;27;130530;-70
2022/06/07 04:04:56;;;;;;;15.13;10.00;;;16.30;1.00;;;18.32;75.38;99308.41;5062898;27;128928;-70
2022/06/07 04:10:10;;;;;;;14.38;9.05;;;16.70;99.90;;;18.73;70.63;99307.00;4993492;27;119826;-69
2022/06/07 04:12:51;;;;;;;13.48;8.55;;;16.90;99.90;;;18.76;68.08;99290.59;5063941;27;130421;-69
2022/06/07 04:15:22;;;;;;;13.68;8.20;;;16.90;99.90;;;18.87;67.00;99301.75;5060339;27;129931;-71
2022/06/07 04:17:53;;;;;;;11.70;8.25;;;17.00;99.90;;;18.90;65.74;99306.53;5064062;27;120432;-70
2022/06/07 04:20:27;;;;;;;13.38;7.68;;;17.00;99.90;;;19.01;66.11;99301.94;5060955;27;119749;-68
2022/06/07 04:22:59;;;;;;;11.35;7.88;;;17.20;99.90;;;19.17;66.76;99317.47;5063750;27;129526;-68
2022/06/07 04:25:29;;;;;;;14.27;8.80;;;17.40;99.90;;;19.43;65.70;99310.28;5046278;27;129112;-72
2022/06/07 04:27:58;;;;;;;16.80;8.70;;;17.50;99.90;;;19.69;64.69;99309.41;5059733;27;121551;-74
2022/06/07 04:30:30;;;;;;;11.45;7.65;;;17.60;99.90;;;19.99;64.20;99320.34;5064061;27;121198;-70
2022/06/07 04:33:02;;;;;;;13.63;8.40;;;17.90;99.90;;;20.14;62.47;99314.97;5062148;27;130424;-72
2022/06/07 04:35:31;;;;;;;10.95;7.63;;;18.00;99.90;;;20.23;62.23;99318.97;5046276;27;129001;-72
2022/06/07 04:38:06;;;;;;;12.82;7.53;;;18.10;99.90;;;20.44;61.79;99318.38;5042923;27;120124;-72
2022/06/07 04:40:40;;;;;;;;;;;18.30;99.90;;;20.47;61.94;99320.34;5044872;27;118767;-73
2022/06/07 04:43:11;;;;;;;13.38;7.43;;;18.50;99.90;;;20.68;60.48;99318.13;5056532;27;129862;-72
2022/06/07 04:45:41;;;;;;;13.80;7.22;;;18.60;99.90;;;20.80;59.90;99318.63;5039619;27;129303;-71
2022/06/07 04:48:16;;;;;;;10.77;6.80;;;18.60;99.90;;;20.89;58.55;99311.97;5056324;27;121126;-71
2022/06/07 04:51:04;;;;;;;16.48;7.15;;;18.70;99.90;;;20.81;59.23;99314.66;5025685;27;118960;-71
2022/06/07 04:53:39;;;;;;;9.80;6.93;;;18.80;99.90;;;21.03;57.77;99311.25;5024420;27;129329;-71
2022/06/07 04:56:10;;;;;;;9.45;6.43;;;18.90;99.90;;;21.35;57.84;99316.91;5056334;27;130509;-72
2022/06/07 04:58:40;;;;;;;13.15;6.32;;;19.20;99.90;;;21.56;57.13;99313.44;5056382;27;119761;-71
2022/06/07 05:01:10;;;;;;;13.55;7.35;;;19.30;99.90;;;21.71;56.17;99315.06;5056816;27;120071;-72
2022/06/07 05:03:39;;;;;;;12.00;5.97;;;19.40;99.90;;;21.86;55.33;99309.56;5020338;27;130008;-70
2022/06/07 05:06:18;;;;;;;9.98;6.03;;;19.40;99.90;;;22.00;55.59;99315.13;4988974;28;128933;-71
2022/06/07 05:08:54;;;;;;;11.32;5.68;;;19.50;99.90;;;22.18;53.82;99314.31;5002641;28;119913;-72
2022/06/07 05:11:23;;;;;;;11.07;6.10;;;19.60;99.90;;;22.45;52.72;99311.97;5005860;28;119371;-70
2022/06/07 05:13:55;;;;;;;11.55;5.88;;;19.80;99.90;;;22.63;52.43;99311.16;5002692;28;130504;-72
2022/06/07 05:16:25;;;;;;;13.15;6.00;;;19.80;99.90;;;22.65;52.05;99314.31;5004090;28;129350;-71
2022/06/07 05:18:56;;;;;;;12.50;6.38;;;19.90;99.90;;;22.65;52.04;99314.31;5017749;28;122533;-73
2022/06/07 05:21:27;;;;;;;12.32;5.85;;;19.90;99.90;;;22.79;52.28;99317.03;5005365;28;121349;-70
2022/06/07 05:23:57;;;;;;;10.10;6.07;;;20.00;99.90;;;22.73;51.72;99310.34;5018789;27;130597;-72
2022/06/07 05:26:33;;;;;;;15.50;6.28;;;20.00;99.90;;;22.91;51.15;99310.31;5024929;27;129420;-72
2022/06/07 05:29:05;;;;;;;14.88;5.93;;;20.20;99.90;;;23.17;50.47;99300.75;5022086;27;119734;-73
2022/06/07 05:31:35;;;;;;;10.75;6.13;;;20.50;99.90;;;23.31;49.56;99306.22;5008508;27;118352;-71
2022/06/07 05:34:04;;;;;;;19.38;7.18;;;20.50;99.90;;;23.39;49.67;99306.97;5025490;27;129917;-75
2022/06/07 05:36:34;;;;;;;13.57;5.80;;;20.70;99.90;;;23.73;49.51;99303.59;5022234;27;130282;-72
2022/06/07 05:39:15;;;;;;;14.52;5.63;;;20.90;99.90;;;24.11;48.29;99303.78;5025205;27;118960;-71
2022/06/07 05:41:44;;;;;;;16.10;5.95;;;21.30;99.90;;;24.08;47.67;99295.50;5022081;27;119535;-72
2022/06/07 05:44:20;;;;;;;15.27;5.47;;;21.10;99.90;;;24.21;47.02;99293.78;5023587;27;129259;-71
2022/06/07 05:46:50;;;;;;;10.70;5.30;;;21.20;99.90;;;24.34;46.76;99294.06;5025238;27;128492;-71
2022/06/07 05:49:42;;;;;;;12.40;5.15;;;21.40;99.90;;;24.37;46.25;99296.81;5036754;27;119624;-72
2022/06/07 05:52:13;;;;;;;13.63;4.90;;;21.30;99.90;;;24.28;46.73;99295.69;5025342;27;118944;-73
2022/06/07 05:54:46;;;;;;;11.05;5.00;;;21.20;99.90;;;24.28;47.50;99293.75;5038267;27;129913;-71
2022/06/07 05:57:15;;;;;;;8.52;4.47;;;21.20;99.90;;;24.26;47.15;99292.56;5040162;27;129435;-72
2022/06/07 05:59:45;;;;;;;9.68;4.57;;;21.30;99.90;;;24.28;46.53;99298.47;5038902;27;119450;-70
2022/06/07 06:02:16;;;;;;;11.15;4.50;;;21.40;99.90;;;24.41;47.06;99294.00;5041294;27;119270;-74
2022/06/07 06:04:45;;;;;;;10.57;4.72;;;21.50;99.90;;;24.36;46.93;99295.25;5058542;27;130019;-71
2022/06/07 06:07:15;;;;;;;12.15;4.63;;;21.60;99.90;;;24.45;45.36;99296.75;5058545;27;129533;-73
2022/06/07 06:12:46;;;;;;;12.00;4.25;;;22.00;99.90;;;25.03;45.28;99296.97;5061810;27;121863;-70
2022/06/07 06:15:21;;;;;;;10.35;4.80;;;22.30;99.90;;;25.17;43.50;99301.56;5059291;27;129639;-70
2022/06/07 06:17:51;;;;;;;11.70;4.15;;;22.40;99.90;;;25.34;43.50;99295.00;5057857;27;129661;-70
2022/06/07 06:20:30;;;;;;;11.38;4.35;;;22.70;99.90;;;25.71;43.85;99290.53;5023416;27;119546;-72
2022/06/07 06:23:02;;;;;;;8.25;3.83;;;22.90;99.90;;;25.64;42.70;99299.75;5026455;27;119449;-72
2022/06/07 06:25:32;;;;;;;7.75;3.42;;;22.90;99.90;;;25.78;43.64;99284.06;5042136;27;128727;-72
2022/06/07 06:28:01;;;;;;;10.57;4.22;;;23.00;99.90;;;25.11;42.98;99293.66;5027365;27;129616;-71
2022/06/07 06:30:30;;;;;;;9.80;4.55;;;22.60;99.90;;;25.35;42.65;99293.00;5024095;27;120054;-72
2022/06/07 06:33:06;;;;;;;9.43;4.30;;;22.50;99.90;;;25.59;42.76;99291.88;5021285;27;119526;-71
2022/06/07 06:35:35;;;;;;;13.25;3.90;;;22.70;99.90;;;25.91;43.04;99287.06;5037865;27;129867;-73
2022/06/07 06:38:04;;;;;;;8.75;3.75;;;23.00;99.90;;;25.96;41.35;99289.34;5027017;27;128626;-75
2022/06/07 06:40:35;;;;;;;7.85;3.67;;;22.80;99.90;;;26.12;40.77;99292.28;5040603;27;119832;-71
2022/06/07 06:43:05;;;;;;;8.48;4.15;;;23.00;99.90;;;26.12;41.69;99275.63;5021714;27;119543;-71
2022/06/07 06:45:52;;;;;;;10.60;3.97;;;23.00;99.90;;;26.10;41.53;99272.47;5039096;27;129926;-73
2022/06/07 06:48:22;;;;;;;6.93;3.28;;;22.90;99.90;;;25.97;41.02;99274.25;5023974;27;129600;-70
2022/06/07 06:51:01;;;;;;;11.35;3.22;;;23.00;99.90;;;25.81;41.56;99270.13;5025345;27;119959;-71
2022/06/07 06:53:29;;;;;;;8.52;3.92;;;22.90;99.90;;;25.62;41.99;99271.59;5007059;27;118433;-70
2022/06/07 06:56:07;;;;;;;6.47;3.78;;;22.70;99.90;;;25.78;41.80;99278.53;5023488;27;129379;-71
2022/06/07 06:58:42;;;;;;;7.15;4.13;;;22.80;99.90;;;25.87;41.79;99283.53;5040717;27;129294;-71
2022/06/07 07:01:18;;;;;;;7.95;3.70;;;22.90;99.90;;;25.84;43.05;99280.41;5039448;27;121291;-70
2022/06/07 07:03:47;;;;;;;6.78;3.58;;;23.10;99.90;;;25.94;40.98;99273.09;5040932;27;122115;-71
2022/06/07 07:06:20;;;;;;;7.05;2.95;;;23.20;99.90;;;26.07;40.99;99267.75;5006545;27;129494;-70
2022/06/07 07:08:50;;;;;;;6.75;3.60;;;23.20;99.90;;;26.28;41.73;99265.81;5023577;27;129422;-70
2022/06/07 07:11:27;;;;;;;10.65;4.25;;;23.50;99.90;;;26.48;41.36;99269.41;5040445;27;119154;-72
2022/06/07 07:14:00;;;;;;;8.75;3.88;;;23.70;99.90;;;26.50;42.02;99267.00;5020565;27;119974;-70
2022/06/07 07:16:32;;;;;;;9.57;3.70;;;23.60;99.90;;;26.41;40.80;99265.97;5023615;27;130474;-70
2022/06/07 07:19:04;;;;;;;5.60;3.20;;;23.40;99.90;;;26.25;40.84;99255.53;5020952;27;130052;-72
2022/06/07 07:21:36;;;;;;;7.85;3.38;;;23.50;99.90;;;26.23;39.83;99261.53;5023948;27;119726;-70
2022/06/07 07:24:13;;;;;;;8.67;3.50;;;23.00;99.90;;;26.42;40.62;99260.00;5040396;27;118882;-71
2022/06/07 07:26:46;;;;;;;6.43;3.08;;;23.40;99.90;;;26.37;38.53;99252.16;5038915;27;130131;-75
2022/06/07 07:29:19;;;;;;;6.32;2.88;;;23.20;99.90;;;26.35;39.34;99260.09;5036063;27;129511;-75
2022/06/07 07:31:48;;;;;;;5.07;2.85;;;23.30;99.90;;;26.62;38.97;99256.47;5023377;27;119222;-69
2022/06/07 07:34:21;;;;;;;7.35;2.95;;;23.70;99.90;;;26.65;40.08;99261.19;5020502;27;119747;-72
2022/06/07 07:36:54;;;;;;;4.93;2.40;;;23.90;99.90;;;26.78;38.41;99259.34;5036872;27;129749;-70
2022/06/07 07:39:26;;;;;;;9.43;3.15;;;23.90;99.90;;;27.01;38.44;99260.50;5024989;27;129103;-71
2022/06/07 07:41:59;;;;;;;7.25;3.17;;;24.00;99.90;;;26.95;38.32;99251.06;5027299;27;119197;-70
2022/06/07 07:44:31;;;;;;;6.55;3.20;;;23.60;99.90;;;27.05;38.55;99250.03;5042470;27;120110;-74
2022/06/07 07:47:02;;;;;;;9.77;2.95;;;24.00;99.90;;;27.13;39.39;99254.28;5010424;27;128803;-74
2022/06/07 07:49:36;;;;;;;6.13;3.45;;;24.30;99.90;;;27.24;38.64;99252.03;5009962;27;130307;-71
2022/06/07 07:52:07;;;;;;;9.15;3.15;;;24.50;99.90;;;27.43;37.47;99247.66;5036197;27;121823;-71
2022/06/07 07:54:36;;;;;;;6.45;2.88;;;24.60;99.90;;;27.11;38.25;99259.47;5060908;27;122335;-73
2022/06/07 07:57:10;;;;;;;6.97;2.80;;;24.20;99.90;;;26.89;39.19;99259.13;5046765;27;128878;-72
2022/06/07 07:59:40;;;;;;;10.23;3.08;;;24.00;99.90;;;26.84;40.00;99252.06;5061419;27;129488;-75
2022/06/07 08:02:23;;;;;;;8.38;3.28;;;23.90;99.90;;;26.67;37.56;99258.78;5047030;27;119165;-70
2022/06/07 08:04:58;;;;;;;7.82;2.83;;;23.70;99.90;;;26.62;36.95;99256.47;5060821;27;119444;-71
2022/06/07 08:07:27;;;;;;;8.95;3.03;;;23.60;99.90;;;26.98;37.05;99255.78;5060341;27;129636;-74
2022/06/07 08:09:56;;;;;;;8.90;3.65;;;23.70;99.90;;;27.07;37.92;99251.19;5062325;27;129687;-73
2022/06/07 08:12:26;;;;;;;10.38;3.58;;;24.00;99.90;;;27.56;38.99;99250.53;5062124;27;120244;-72
2022/06/07 08:14:55;;;;;;;7.03;2.80;;;24.30;99.90;;;27.55;39.91;99253.75;5063869;27;119362;-73
2022/06/07 08:17:24;;;;;;;7.15;2.50;;;24.80;99.90;;;28.04;37.73;99255.81;5060433;27;129909;-72
2022/06/07 08:19:53;;;;;;;6.68;2.53;;;25.10;99.90;;;28.15;34.93;99267.47;5061537;27;129112;-73
2022/06/07 08:22:22;;;;;;;7.90;2.75;;;24.50;99.90;;;28.10;35.36;99262.44;5061847;27;119663;-73
2022/06/07 08:24:51;;;;;;;7.22;3.17;;;24.10;99.90;;;27.87;36.86;99261.34;5062066;27;119282;-71
2022/06/07 08:27:20;;;;;;;4.47;2.55;;;24.40;99.90;;;28.12;36.13;99266.34;5061653;27;130764;-74
2022/06/07 08:29:50;;;;;;;6.28;2.85;;;24.60;99.90;;;28.53;37.23;99269.66;5045647;27;129731;-73
2022/06/07 08:32:19;;;;;;;6.97;3.13;;;25.20;99.90;;;28.68;36.29;99265.31;5061912;27;119659;-75
2022/06/07 08:37:38;;;;;;;;;;;24.90;99.90;;;27.96;37.06;99261.56;5063439;27;129537;-70
2022/06/07 08:40:12;;;;;;;7.80;3.42;;;24.70;99.90;;;28.45;37.71;99262.72;5060857;27;129390;-70
2022/06/07 08:42:52;;;;;;;6.63;2.93;;;25.30;99.90;;;28.53;34.26;99258.50;5060351;27;122269;-73
2022/06/07 08:45:28;;;;;;;6.10;3.20;;;25.30;99.90;;;28.72;35.22;99253.25;5060343;27;121837;-72
2022/06/07 08:48:01;;;;;;;5.07;2.90;;;25.40;99.90;;;29.07;33.38;99256.25;5059603;27;129523;-71
2022/06/07 08:50:35;;;;;;;3.80;2.60;;;25.80;99.90;;;29.04;33.50;99255.91;5060922;27;129340;-73
2022/06/07 08:53:16;;;;;;;6.22;3.13;;;25.60;99.90;;;29.13;33.34;99251.69;5062052;27;119890;-73
2022/06/07 08:55:49;;;;;;;5.57;2.67;;;25.40;99.90;;;29.68;33.39;99255.19;5046357;27;118548;-71
2022/06/07 08:58:23;;;;;;;5.20;2.80;;;25.50;99.90;;;29.64;34.39;99246.16;5061108;27;129839;-72
2022/06/07 09:01:03;;;;;;;5.55;2.83;;;26.10;99.90;;;29.37;34.26;99247.38;5049539;27;129107;-71
2022/06/07 09:03:49;;;;;;;4.10;2.60;;;26.00;99.90;;;28.97;33.22;99247.75;5063897;27;119792;-72
2022/06/07 09:06:21;;;;;;;4.78;2.70;;;25.40;99.90;;;28.75;34.80;99246.78;5059888;27;119109;-71
2022/06/07 09:08:54;;;;;;;5.18;2.50;;;25.00;99.90;;;28.85;33.09;99234.53;5041151;27;129845;-72
2022/06/07 09:14:22;;;;;;;4.18;2.50;;;25.40;99.90;;;29.43;34.09;99232.84;5055782;27;119665;-72
2022/06/07 09:16:55;;;;;;;4.30;2.50;;;26.10;99.90;;;29.69;33.90;99234.41;5059991;27;119439;-71
2022/06/07 09:19:27;;;;;;;4.95;2.40;;;26.50;99.90;;;30.01;33.00;99235.41;5053294;27;129912;-72
2022/06/07 09:22:04;;;;;;;3.50;2.22;;;26.80;99.90;;;29.94;32.05;99235.63;5054650;27;130209;-74
2022/06/07 09:24:43;;;;;;;5.45;2.35;;;26.40;99.90;;;29.53;32.35;99237.31;5048940;27;119560;-72
2022/06/07 09:27:18;;;;;;;4.28;2.35;;;25.80;99.90;;;29.51;32.23;99223.00;5061295;27;119393;-72
2022/06/07 09:29:55;;;;;;;3.72;2.47;;;25.90;99.90;;;29.23;34.07;99217.06;5042217;27;129265;-73
2022/06/07 09:32:33;;;;;;;3.67;2.38;;;26.10;99.90;;;29.32;33.51;99233.19;5055128;27;129259;-70
2022/06/07 09:35:08;;;;;;;4.88;2.80;;;26.00;99.90;;;29.02;34.00;99219.25;5059125;27;121929;-73
2022/06/07 09:37:47;;;;;;;4.88;2.42;;;25.60;99.90;;;29.18;33.20;99226.75;5055683;27;123182;-72
2022/06/07 09:40:30;;;;;;;6.25;2.90;;;25.80;99.90;;;29.21;34.58;99227.91;5041546;27;129054;-73
2022/06/07 09:43:08;;;;;;;3.95;2.45;;;25.80;99.90;;;28.94;33.31;99223.50;5058412;27;128605;-73
2022/06/07 09:45:48;;;;;;;4.13;2.25;;;25.60;99.90;;;29.05;33.95;99225.97;5060370;27;120491;-72
2022/06/07 09:48:30;;;;;;;5.88;2.80;;;25.80;99.90;;;28.99;32.04;99222.94;5062941;27;119649;-74
2022/06/07 09:51:08;;;;;;;5.38;2.67;;;25.10;99.90;;;28.68;32.80;99226.22;5058908;27;130679;-72
2022/06/07 09:53:40;;;;;;;6.50;2.70;;;25.20;99.90;;;28.93;33.97;99215.56;5060905;27;129601;-72
2022/06/07 09:56:26;;;;;;;5.18;3.00;;;25.30;99.90;;;28.29;34.14;99216.88;5049327;27;119664;-73
2022/06/07 09:59:43;;;;;;;4.82;2.78;;;24.50;99.90;;;27.82;36.36;99211.72;5059089;27;119255;-73
2022/06/07 10:03:20;;;;;;;4.70;2.60;;;24.30;99.90;;;27.85;36.51;99213.63;5037716;27;130366;-72
2022/06/07 10:06:09;;;;;;;4.93;3.10;;;24.70;99.90;;;27.45;36.47;99205.44;5024432;27;130618;-73
2022/06/07 10:08:56;;;;;;;6.68;3.28;;;24.50;99.90;;;27.33;37.86;99203.31;5042819;27;120204;-72
2022/06/07 10:11:33;;;;;;;3.38;2.40;;;24.20;99.90;;;27.74;37.15;99204.75;5023957;27;118955;-74
2022/06/07 10:14:30;;;;;;;5.15;2.85;;;24.80;99.90;;;27.86;35.88;99204.06;5024394;27;129939;-73
2022/06/07 10:17:18;;;;;;;;;;;24.70;99.90;;;27.87;36.50;99204.81;5040150;27;129767;-72
2022/06/07 10:19:57;;;;;;;5.43;2.50;;;24.50;99.90;;;28.29;36.69;99199.38;5047247;27;118866;-75
2022/06/07 10:22:50;;;;;;;4.32;2.78;;;25.10;99.90;;;29.10;35.57;99199.50;5060271;27;119423;-71
2022/06/07 10:25:25;;;;;;;4.72;2.58;;;26.10;99.90;;;29.10;34.75;99193.91;5061370;27;128563;-74
2022/06/07 10:28:06;;;;;;;5.63;3.03;;;25.80;99.90;;;29.37;34.97;99191.50;5058410;27;130272;-72
2022/06/07 10:30:44;;;;;;;9.20;2.90;;;25.80;99.90;;;29.63;34.65;99185.09;5060257;27;121240;-71
2022/06/07 10:33:55;;;;;;;6.53;2.90;;;26.30;99.90;;;29.33;35.93;99185.22;5044830;27;120467;-73
2022/06/07 10:36:41;;;;;;;7.00;2.75;;;25.90;99.90;;;29.32;34.56;99178.06;5058509;27;130262;-73
2022/06/07 10:39:32;;;;;;;4.03;2.60;;;25.80;99.90;;;29.29;37.10;99178.97;5061676;27;129577;-72
2022/06/07 10:42:14;;;;;;;6.32;2.58;;;25.80;99.90;;;29.37;34.93;99169.16;5060467;27;119841;-72
2022/06/07 10:44:49;;;;;;;5.45;2.85;;;25.50;99.90;;;30.39;33.46;99180.56;5063374;27;118576;-72
2022/06/07 10:47:29;;;;;;;4.93;2.92;;;26.60;99.90;;;31.00;32.99;99169.91;5063222;27;129443;-70
2022/06/07 10:50:03;;;;;;;5.20;2.50;;;27.50;99.90;;;31.29;32.24;99165.94;5060778;27;129400;-73
2022/06/07 10:52:44;;;;;;;5.18;2.53;;;27.80;99.90;;;30.65;30.53;99172.78;5046069;27;119234;-74
2022/06/07 10:55:27;;;;;;;4.07;2.30;;;27.10;99.90;;;31.29;31.63;99174.38;5059732;27;119782;-74
2022/06/07 10:58:20;;;;;;;5.70;2.53;;;27.50;99.90;;;31.33;30.57;99163.78;5057776;27;129841;-70